Okhotsk, Russia
Current Conditions -  °F | °C
As of 1:00 PM on Thursday 23 Oct 2014 (Local Time) from UHMM Reporting Station
Overcast Overcast  
Wind Chill: 15°   Ceiling: 1900
Heat Index: 21°   Visibility: 6mi
Dew Point: 19°   Wind: 4mph
Humidity: 93%   Direction: 270°W
Pressure: 29.26"   Gusts: NA
Location:  59.38°N, 143.3°E
Report Text: UHMM 230300Z 27002MPS 9999 BKN019 OVC200 M06/M07 Q0991 NOSIGRMK QFE729 88490535 MT OBSC
Loading
Personal Weather Stations






























Interactive Weather Map
Tropical Storm Tracking
New forecast layout! Learn more

10-Day Weather Forecast

Advertisements
Track Severe Weather on mobile